sensor_id;sensor_type;location;lat;lon;timestamp;temperature;humidity
314;DHT22;143;51.634;7.112;2023-06-14T00:01:48;20.70;99.90
314;DHT22;143;51.634;7.112;2023-06-14T00:04:14;20.70;99.90
314;DHT22;143;51.634;7.112;2023-06-14T00:06:42;20.60;99.90
314;DHT22;143;51.634;7.112;2023-06-14T00:09:13;20.70;99.90
314;DHT22;143;51.634;7.112;2023-06-14T00:11:42;20.60;99.90
314;DHT22;143;51.634;7.112;2023-06-14T00:14:08;20.60;99.90
314;DHT22;143;51.634;7.112;2023-06-14T00:16:34;20.60;99.90
314;DHT22;143;51.634;7.112;2023-06-14T00:19:01;20.50;99.90
314;DHT22;143;51.634;7.112;2023-06-14T00:21:29;20.50;99.90
314;DHT22;143;51.634;7.112;2023-06-14T00:23:55;20.40;99.90
314;DHT22;143;51.634;7.112;2023-06-14T00:26:21;20.40;99.90
314;DHT22;143;51.634;7.112;2023-06-14T00:28:47;20.40;99.90
314;DHT22;143;51.634;7.112;2023-06-14T00:31:12;20.40;99.90
314;DHT22;143;51.634;7.112;2023-06-14T00:33:38;20.30;99.90
314;DHT22;143;51.634;7.112;2023-06-14T00:36:04;20.30;99.90
314;DHT22;143;51.634;7.112;2023-06-14T00:38:30;20.20;99.90
314;DHT22;143;51.634;7.112;2023-06-14T00:40:55;20.20;99.90
314;DHT22;143;51.634;7.112;2023-06-14T00:43:21;20.20;99.90
314;DHT22;143;51.634;7.112;2023-06-14T00:45:46;20.20;99.90
314;DHT22;143;51.634;7.112;2023-06-14T00:48:15;20.20;99.90
314;DHT22;143;51.634;7.112;2023-06-14T00:50:41;20.10;99.90
314;DHT22;143;51.634;7.112;2023-06-14T00:53:07;20.10;99.90
314;DHT22;143;51.634;7.112;2023-06-14T00:55:33;20.10;99.90
314;DHT22;143;51.634;7.112;2023-06-14T00:57:59;20.00;99.90
314;DHT22;143;51.634;7.112;2023-06-14T01:00:25;20.00;99.90
314;DHT22;143;51.634;7.112;2023-06-14T01:02:51;20.00;99.90
314;DHT22;143;51.634;7.112;2023-06-14T01:05:17;20.00;99.90
314;DHT22;143;51.634;7.112;2023-06-14T01:07:58;20.00;99.90
314;DHT22;143;51.634;7.112;2023-06-14T01:10:50;20.00;99.90
314;DHT22;143;51.634;7.112;2023-06-14T01:13:32;19.90;99.90
314;DHT22;143;51.634;7.112;2023-06-14T01:15:59;19.90;99.90
314;DHT22;143;51.634;7.112;2023-06-14T01:18:24;19.90;99.90
314;DHT22;143;51.634;7.112;2023-06-14T01:20:51;19.90;99.90
314;DHT22;143;51.634;7.112;2023-06-14T01:23:21;19.90;99.90
314;DHT22;143;51.634;7.112;2023-06-14T01:25:48;19.80;99.90
314;DHT22;143;51.634;7.112;2023-06-14T01:28:19;19.80;99.90
314;DHT22;143;51.634;7.112;2023-06-14T01:30:51;19.70;99.90
314;DHT22;143;51.634;7.112;2023-06-14T01:33:20;19.70;99.90
314;DHT22;143;51.634;7.112;2023-06-14T01:35:51;19.70;99.90
314;DHT22;143;51.634;7.112;2023-06-14T01:38:23;19.60;99.90
314;DHT22;143;51.634;7.112;2023-06-14T01:40:50;19.60;99.90
314;DHT22;143;51.634;7.112;2023-06-14T01:43:18;19.60;99.90
314;DHT22;143;51.634;7.112;2023-06-14T01:45:46;19.50;99.90
314;DHT22;143;51.634;7.112;2023-06-14T01:48:12;19.50;99.90
314;DHT22;143;51.634;7.112;2023-06-14T01:50:39;19.40;99.90
314;DHT22;143;51.634;7.112;2023-06-14T01:53:08;19.40;99.90
314;DHT22;143;51.634;7.112;2023-06-14T01:55:34;19.30;99.90
314;DHT22;143;51.634;7.112;2023-06-14T01:58:03;19.30;99.90
314;DHT22;143;51.634;7.112;2023-06-14T02:00:29;19.30;99.90
314;DHT22;143;51.634;7.112;2023-06-14T02:02:55;19.20;99.90
314;DHT22;143;51.634;7.112;2023-06-14T02:05:21;19.20;99.90
314;DHT22;143;51.634;7.112;2023-06-14T02:07:47;19.20;99.90
314;DHT22;143;51.634;7.112;2023-06-14T02:10:13;19.10;99.90
314;DHT22;143;51.634;7.112;2023-06-14T02:12:40;19.10;99.90
314;DHT22;143;51.634;7.112;2023-06-14T02:15:06;19.10;99.90
314;DHT22;143;51.634;7.112;2023-06-14T02:17:32;19.00;99.90
314;DHT22;143;51.634;7.112;2023-06-14T02:19:58;19.00;99.90
314;DHT22;143;51.634;7.112;2023-06-14T02:22:24;19.00;99.90
314;DHT22;143;51.634;7.112;2023-06-14T02:24:50;19.00;99.90
314;DHT22;143;51.634;7.112;2023-06-14T02:27:16;18.90;99.90
314;DHT22;143;51.634;7.112;2023-06-14T02:29:42;18.90;99.90
314;DHT22;143;51.634;7.112;2023-06-14T02:32:08;18.90;99.90
314;DHT22;143;51.634;7.112;2023-06-14T02:34:34;18.80;1.00
314;DHT22;143;51.634;7.112;2023-06-14T02:37:01;18.80;1.00
314;DHT22;143;51.634;7.112;2023-06-14T02:39:28;18.80;1.00
314;DHT22;143;51.634;7.112;2023-06-14T02:41:54;18.70;1.00
314;DHT22;143;51.634;7.112;2023-06-14T02:44:24;18.70;1.00
314;DHT22;143;51.634;7.112;2023-06-14T02:46:51;18.70;1.00
314;DHT22;143;51.634;7.112;2023-06-14T02:49:16;18.60;1.00
314;DHT22;143;51.634;7.112;2023-06-14T02:51:42;18.60;1.00
314;DHT22;143;51.634;7.112;2023-06-14T02:54:08;18.60;1.00
314;DHT22;143;51.634;7.112;2023-06-14T02:56:33;18.60;1.00
314;DHT22;143;51.634;7.112;2023-06-14T02:58:59;18.50;1.00
314;DHT22;143;51.634;7.112;2023-06-14T03:01:26;18.60;1.00
314;DHT22;143;51.634;7.112;2023-06-14T03:04:03;18.50;1.00
314;DHT22;143;51.634;7.112;2023-06-14T03:06:29;18.50;1.00
314;DHT22;143;51.634;7.112;2023-06-14T03:08:59;18.50;1.00
314;DHT22;143;51.634;7.112;2023-06-14T03:11:29;18.50;1.00
314;DHT22;143;51.634;7.112;2023-06-14T03:13:54;18.50;1.00
314;DHT22;143;51.634;7.112;2023-06-14T03:16:22;18.40;1.00
314;DHT22;143;51.634;7.112;2023-06-14T03:18:51;18.40;1.00
314;DHT22;143;51.634;7.112;2023-06-14T03:21:21;18.40;1.00
314;DHT22;143;51.634;7.112;2023-06-14T03:23:47;18.40;1.00
314;DHT22;143;51.634;7.112;2023-06-14T03:26:13;18.40;1.00
314;DHT22;143;51.634;7.112;2023-06-14T03:28:40;18.40;1.00
314;DHT22;143;51.634;7.112;2023-06-14T03:31:06;18.40;1.00
314;DHT22;143;51.634;7.112;2023-06-14T03:33:32;18.30;1.00
314;DHT22;143;51.634;7.112;2023-06-14T03:35:58;18.30;1.00
314;DHT22;143;51.634;7.112;2023-06-14T03:38:24;18.30;1.00
314;DHT22;143;51.634;7.112;2023-06-14T03:40:49;18.30;1.00
314;DHT22;143;51.634;7.112;2023-06-14T03:43:15;18.20;1.00
314;DHT22;143;51.634;7.112;2023-06-14T03:45:40;18.20;1.00
314;DHT22;143;51.634;7.112;2023-06-14T03:48:06;18.20;1.00
314;DHT22;143;51.634;7.112;2023-06-14T03:50:34;18.20;1.00
314;DHT22;143;51.634;7.112;2023-06-14T03:53:00;18.20;1.00
314;DHT22;143;51.634;7.112;2023-06-14T03:55:26;18.20;1.00
314;DHT22;143;51.634;7.112;2023-06-14T03:57:53;18.20;1.00
314;DHT22;143;51.634;7.112;2023-06-14T04:00:18;18.10;1.00
314;DHT22;143;51.634;7.112;2023-06-14T04:02:44;18.10;1.00
314;DHT22;143;51.634;7.112;2023-06-14T04:05:10;18.10;1.00
314;DHT22;143;51.634;7.112;2023-06-14T04:07:36;18.10;1.00
314;DHT22;143;51.634;7.112;2023-06-14T04:10:13;18.10;1.00
314;DHT22;143;51.634;7.112;2023-06-14T04:12:39;18.10;1.00
314;DHT22;143;51.634;7.112;2023-06-14T04:15:05;18.00;1.00
314;DHT22;143;51.634;7.112;2023-06-14T04:17:32;18.00;1.00
314;DHT22;143;51.634;7.112;2023-06-14T04:20:02;18.00;1.00
314;DHT22;143;51.634;7.112;2023-06-14T04:22:30;18.00;1.00
314;DHT22;143;51.634;7.112;2023-06-14T04:24:56;18.00;1.00
314;DHT22;143;51.634;7.112;2023-06-14T04:27:23;18.00;1.00
314;DHT22;143;51.634;7.112;2023-06-14T04:29:56;18.00;1.00
314;DHT22;143;51.634;7.112;2023-06-14T04:32:26;18.00;1.00
314;DHT22;143;51.634;7.112;2023-06-14T04:34:55;17.90;1.00
314;DHT22;143;51.634;7.112;2023-06-14T04:37:22;18.00;1.00
314;DHT22;143;51.634;7.112;2023-06-14T04:39:48;17.90;1.00
314;DHT22;143;51.634;7.112;2023-06-14T04:42:14;17.90;1.00
314;DHT22;143;51.634;7.112;2023-06-14T04:44:42;17.90;1.00
314;DHT22;143;51.634;7.112;2023-06-14T04:47:12;18.00;1.00
314;DHT22;143;51.634;7.112;2023-06-14T04:49:38;18.00;1.00
314;DHT22;143;51.634;7.112;2023-06-14T04:52:05;18.00;1.00
314;DHT22;143;51.634;7.112;2023-06-14T04:54:31;18.10;1.00
314;DHT22;143;51.634;7.112;2023-06-14T04:56:59;18.10;1.00
314;DHT22;143;51.634;7.112;2023-06-14T04:59:25;18.10;1.00
314;DHT22;143;51.634;7.112;2023-06-14T05:01:51;18.10;1.00
314;DHT22;143;51.634;7.112;2023-06-14T05:04:19;18.20;1.00
314;DHT22;143;51.634;7.112;2023-06-14T05:06:46;18.20;1.00
314;DHT22;143;51.634;7.112;2023-06-14T05:09:15;18.20;1.00
314;DHT22;143;51.634;7.112;2023-06-14T05:11:42;18.20;1.00
314;DHT22;143;51.634;7.112;2023-06-14T05:14:10;18.20;1.00
314;DHT22;143;51.634;7.112;2023-06-14T05:16:36;18.20;1.00
314;DHT22;143;51.634;7.112;2023-06-14T05:19:03;18.30;1.00
314;DHT22;143;51.634;7.112;2023-06-14T05:21:30;18.30;1.00
314;DHT22;143;51.634;7.112;2023-06-14T05:23:56;18.30;1.00
314;DHT22;143;51.634;7.112;2023-06-14T05:26:21;18.40;1.00
314;DHT22;143;51.634;7.112;2023-06-14T05:28:50;18.40;1.00
314;DHT22;143;51.634;7.112;2023-06-14T05:31:18;18.40;1.00
314;DHT22;143;51.634;7.112;2023-06-14T05:33:43;18.50;1.00
314;DHT22;143;51.634;7.112;2023-06-14T05:36:09;18.50;1.00
314;DHT22;143;51.634;7.112;2023-06-14T05:38:35;18.60;1.00
314;DHT22;143;51.634;7.112;2023-06-14T05:41:01;18.60;1.00
314;DHT22;143;51.634;7.112;2023-06-14T05:43:26;18.70;1.00
314;DHT22;143;51.634;7.112;2023-06-14T05:45:52;18.80;1.00
314;DHT22;143;51.634;7.112;2023-06-14T05:48:17;18.80;1.00
314;DHT22;143;51.634;7.112;2023-06-14T05:50:43;18.90;1.00
314;DHT22;143;51.634;7.112;2023-06-14T05:53:09;19.00;1.00
314;DHT22;143;51.634;7.112;2023-06-14T05:55:35;19.00;1.00
314;DHT22;143;51.634;7.112;2023-06-14T05:58:01;19.10;1.00
314;DHT22;143;51.634;7.112;2023-06-14T06:00:27;19.20;1.00
314;DHT22;143;51.634;7.112;2023-06-14T06:02:53;19.20;1.00
314;DHT22;143;51.634;7.112;2023-06-14T06:05:18;19.30;1.00
314;DHT22;143;51.634;7.112;2023-06-14T06:07:44;19.40;1.00
314;DHT22;143;51.634;7.112;2023-06-14T06:10:10;19.50;1.00
314;DHT22;143;51.634;7.112;2023-06-14T06:12:37;19.60;1.00
314;DHT22;143;51.634;7.112;2023-06-14T06:15:03;19.60;1.00
314;DHT22;143;51.634;7.112;2023-06-14T06:17:28;19.70;1.00
314;DHT22;143;51.634;7.112;2023-06-14T06:19:54;19.80;1.00
314;DHT22;143;51.634;7.112;2023-06-14T06:22:20;19.90;1.00
314;DHT22;143;51.634;7.112;2023-06-14T06:24:46;20.00;1.00
314;DHT22;143;51.634;7.112;2023-06-14T06:27:11;20.00;1.00
314;DHT22;143;51.634;7.112;2023-06-14T06:29:38;20.10;1.00
314;DHT22;143;51.634;7.112;2023-06-14T06:32:04;20.20;1.00
314;DHT22;143;51.634;7.112;2023-06-14T06:34:30;20.30;1.00
314;DHT22;143;51.634;7.112;2023-06-14T06:36:55;20.40;1.00
314;DHT22;143;51.634;7.112;2023-06-14T06:39:21;20.50;1.00
314;DHT22;143;51.634;7.112;2023-06-14T06:41:47;20.60;1.00
314;DHT22;143;51.634;7.112;2023-06-14T06:44:12;20.60;1.00
314;DHT22;143;51.634;7.112;2023-06-14T06:46:39;20.70;1.00
314;DHT22;143;51.634;7.112;2023-06-14T06:49:07;20.80;1.00
314;DHT22;143;51.634;7.112;2023-06-14T06:51:34;20.80;1.00
314;DHT22;143;51.634;7.112;2023-06-14T06:54:00;20.90;1.00
314;DHT22;143;51.634;7.112;2023-06-14T06:56:25;21.00;1.00
314;DHT22;143;51.634;7.112;2023-06-14T06:58:52;21.10;1.00
314;DHT22;143;51.634;7.112;2023-06-14T07:01:18;21.20;1.00
314;DHT22;143;51.634;7.112;2023-06-14T07:03:48;21.30;1.00
314;DHT22;143;51.634;7.112;2023-06-14T07:06:13;21.30;1.00
314;DHT22;143;51.634;7.112;2023-06-14T07:08:39;21.30;1.00
314;DHT22;143;51.634;7.112;2023-06-14T07:11:06;21.40;1.00
314;DHT22;143;51.634;7.112;2023-06-14T07:13:31;21.50;1.00
314;DHT22;143;51.634;7.112;2023-06-14T07:15:59;21.50;1.00
314;DHT22;143;51.634;7.112;2023-06-14T07:18:25;21.60;1.00
314;DHT22;143;51.634;7.112;2023-06-14T07:20:52;21.60;1.00
314;DHT22;143;51.634;7.112;2023-06-14T07:23:18;21.70;1.00
314;DHT22;143;51.634;7.112;2023-06-14T07:25:44;21.80;1.00
314;DHT22;143;51.634;7.112;2023-06-14T07:28:10;21.80;1.00
314;DHT22;143;51.634;7.112;2023-06-14T07:30:35;21.90;1.00
314;DHT22;143;51.634;7.112;2023-06-14T07:33:01;22.00;1.00
314;DHT22;143;51.634;7.112;2023-06-14T07:35:26;22.00;1.00
314;DHT22;143;51.634;7.112;2023-06-14T07:37:52;22.10;1.00
314;DHT22;143;51.634;7.112;2023-06-14T07:40:18;22.20;1.00
314;DHT22;143;51.634;7.112;2023-06-14T07:42:43;22.20;1.00
314;DHT22;143;51.634;7.112;2023-06-14T07:45:09;22.30;1.00
314;DHT22;143;51.634;7.112;2023-06-14T07:47:35;22.30;1.00
314;DHT22;143;51.634;7.112;2023-06-14T07:50:01;22.40;1.00
314;DHT22;143;51.634;7.112;2023-06-14T07:52:27;22.50;1.00
314;DHT22;143;51.634;7.112;2023-06-14T07:54:52;22.50;1.00
314;DHT22;143;51.634;7.112;2023-06-14T07:57:18;22.60;1.00
314;DHT22;143;51.634;7.112;2023-06-14T07:59:45;22.60;1.00
314;DHT22;143;51.634;7.112;2023-06-14T08:02:11;22.70;1.00
314;DHT22;143;51.634;7.112;2023-06-14T08:04:37;22.80;1.00
314;DHT22;143;51.634;7.112;2023-06-14T08:07:03;22.80;1.00
314;DHT22;143;51.634;7.112;2023-06-14T08:09:29;22.90;1.00
314;DHT22;143;51.634;7.112;2023-06-14T08:11:55;23.00;1.00
314;DHT22;143;51.634;7.112;2023-06-14T08:14:21;23.00;1.00
314;DHT22;143;51.634;7.112;2023-06-14T08:16:47;23.00;1.00
314;DHT22;143;51.634;7.112;2023-06-14T08:19:12;23.10;1.00
314;DHT22;143;51.634;7.112;2023-06-14T08:21:38;23.10;1.00
314;DHT22;143;51.634;7.112;2023-06-14T08:24:05;23.10;1.00
314;DHT22;143;51.634;7.112;2023-06-14T08:26:31;23.20;1.00
314;DHT22;143;51.634;7.112;2023-06-14T08:28:57;23.30;1.00
314;DHT22;143;51.634;7.112;2023-06-14T08:31:23;23.30;1.00
314;DHT22;143;51.634;7.112;2023-06-14T08:33:51;23.40;1.00
314;DHT22;143;51.634;7.112;2023-06-14T08:36:18;23.30;1.00
314;DHT22;143;51.634;7.112;2023-06-14T08:38:44;23.30;99.90
314;DHT22;143;51.634;7.112;2023-06-14T08:41:12;23.40;1.00
314;DHT22;143;51.634;7.112;2023-06-14T08:43:41;23.40;99.90
314;DHT22;143;51.634;7.112;2023-06-14T08:46:07;23.50;99.90
314;DHT22;143;51.634;7.112;2023-06-14T08:48:36;23.60;99.90
314;DHT22;143;51.634;7.112;2023-06-14T08:51:04;23.60;99.90
314;DHT22;143;51.634;7.112;2023-06-14T08:53:33;23.70;99.90
314;DHT22;143;51.634;7.112;2023-06-14T08:56:02;23.70;99.90
314;DHT22;143;51.634;7.112;2023-06-14T08:58:34;23.70;99.90
314;DHT22;143;51.634;7.112;2023-06-14T09:01:01;23.80;99.90
314;DHT22;143;51.634;7.112;2023-06-14T09:03:27;23.90;99.90
314;DHT22;143;51.634;7.112;2023-06-14T09:05:58;23.90;99.90
314;DHT22;143;51.634;7.112;2023-06-14T09:08:25;24.00;99.90
314;DHT22;143;51.634;7.112;2023-06-14T09:10:52;24.00;99.90
314;DHT22;143;51.634;7.112;2023-06-14T09:13:18;24.10;99.90
314;DHT22;143;51.634;7.112;2023-06-14T09:15:44;24.20;99.90
314;DHT22;143;51.634;7.112;2023-06-14T09:18:11;24.20;99.90
314;DHT22;143;51.634;7.112;2023-06-14T09:20:37;24.30;99.90
314;DHT22;143;51.634;7.112;2023-06-14T09:23:03;24.30;99.90
314;DHT22;143;51.634;7.112;2023-06-14T09:25:30;24.40;99.90
314;DHT22;143;51.634;7.112;2023-06-14T09:27:56;24.40;99.90
314;DHT22;143;51.634;7.112;2023-06-14T09:30:22;24.40;99.90
314;DHT22;143;51.634;7.112;2023-06-14T09:32:47;24.40;99.90
314;DHT22;143;51.634;7.112;2023-06-14T09:35:17;24.50;99.90
314;DHT22;143;51.634;7.112;2023-06-14T09:37:43;24.40;99.90
314;DHT22;143;51.634;7.112;2023-06-14T09:40:09;24.40;99.90
314;DHT22;143;51.634;7.112;2023-06-14T09:42:36;24.40;99.90
314;DHT22;143;51.634;7.112;2023-06-14T09:45:03;24.30;99.90
314;DHT22;143;51.634;7.112;2023-06-14T09:47:30;24.40;99.90
314;DHT22;143;51.634;7.112;2023-06-14T09:49:55;24.40;99.90
314;DHT22;143;51.634;7.112;2023-06-14T09:52:22;24.40;99.90
314;DHT22;143;51.634;7.112;2023-06-14T09:54:49;24.50;99.90
314;DHT22;143;51.634;7.112;2023-06-14T09:57:17;24.50;99.90
314;DHT22;143;51.634;7.112;2023-06-14T09:59:45;24.60;99.90
314;DHT22;143;51.634;7.112;2023-06-14T10:02:25;24.70;99.90
314;DHT22;143;51.634;7.112;2023-06-14T10:05:05;24.80;99.90
314;DHT22;143;51.634;7.112;2023-06-14T10:10:09;24.90;99.90
314;DHT22;143;51.634;7.112;2023-06-14T10:12:36;24.90;99.90
314;DHT22;143;51.634;7.112;2023-06-14T10:15:02;24.90;99.90
314;DHT22;143;51.634;7.112;2023-06-14T10:22:55;25.00;99.90
314;DHT22;143;51.634;7.112;2023-06-14T10:25:31;25.10;99.90
314;DHT22;143;51.634;7.112;2023-06-14T10:30:37;25.20;99.90
314;DHT22;143;51.634;7.112;2023-06-14T10:33:04;25.40;99.90
314;DHT22;143;51.634;7.112;2023-06-14T10:35:31;25.50;99.90
314;DHT22;143;51.634;7.112;2023-06-14T10:38:10;25.60;99.90
314;DHT22;143;51.634;7.112;2023-06-14T10:40:37;25.70;99.90
314;DHT22;143;51.634;7.112;2023-06-14T10:43:21;25.70;99.90
314;DHT22;143;51.634;7.112;2023-06-14T10:46:16;25.80;99.90
314;DHT22;143;51.634;7.112;2023-06-14T10:48:48;25.80;99.90
314;DHT22;143;51.634;7.112;2023-06-14T10:51:20;25.80;99.90
314;DHT22;143;51.634;7.112;2023-06-14T10:53:47;25.90;99.90
314;DHT22;143;51.634;7.112;2023-06-14T10:56:26;26.00;99.90
314;DHT22;143;51.634;7.112;2023-06-14T10:58:52;25.90;99.90
314;DHT22;143;51.634;7.112;2023-06-14T11:01:38;25.90;99.90
314;DHT22;143;51.634;7.112;2023-06-14T11:04:10;26.00;99.90
314;DHT22;143;51.634;7.112;2023-06-14T11:06:47;26.10;99.90
314;DHT22;143;51.634;7.112;2023-06-14T11:09:31;26.20;99.90
314;DHT22;143;51.634;7.112;2023-06-14T11:12:09;26.20;99.90
314;DHT22;143;51.634;7.112;2023-06-14T11:14:36;26.30;99.90
314;DHT22;143;51.634;7.112;2023-06-14T11:17:01;26.30;99.90
314;DHT22;143;51.634;7.112;2023-06-14T11:19:27;26.30;99.90
314;DHT22;143;51.634;7.112;2023-06-14T11:21:55;26.30;99.90
314;DHT22;143;51.634;7.112;2023-06-14T11:24:20;26.30;99.90
314;DHT22;143;51.634;7.112;2023-06-14T11:26:47;26.40;99.90
314;DHT22;143;51.634;7.112;2023-06-14T11:29:15;26.20;99.90
314;DHT22;143;51.634;7.112;2023-06-14T11:31:44;26.30;99.90
314;DHT22;143;51.634;7.112;2023-06-14T11:34:12;26.30;99.90
314;DHT22;143;51.634;7.112;2023-06-14T11:36:38;26.40;99.90
314;DHT22;143;51.634;7.112;2023-06-14T11:39:06;26.40;99.90
314;DHT22;143;51.634;7.112;2023-06-14T11:41:38;26.50;99.90
314;DHT22;143;51.634;7.112;2023-06-14T11:44:05;26.50;99.90
314;DHT22;143;51.634;7.112;2023-06-14T11:46:31;26.50;99.90
314;DHT22;143;51.634;7.112;2023-06-14T11:48:57;26.60;99.90
314;DHT22;143;51.634;7.112;2023-06-14T11:51:23;26.70;99.90
314;DHT22;143;51.634;7.112;2023-06-14T11:53:49;26.70;99.90
314;DHT22;143;51.634;7.112;2023-06-14T11:56:15;26.80;99.90
314;DHT22;143;51.634;7.112;2023-06-14T11:58:43;26.60;99.90
314;DHT22;143;51.634;7.112;2023-06-14T12:01:09;26.60;99.90
314;DHT22;143;51.634;7.112;2023-06-14T12:03:34;26.50;99.90
314;DHT22;143;51.634;7.112;2023-06-14T12:06:08;26.70;99.90
314;DHT22;143;51.634;7.112;2023-06-14T12:08:37;26.80;99.90
314;DHT22;143;51.634;7.112;2023-06-14T12:11:06;26.80;99.90
314;DHT22;143;51.634;7.112;2023-06-14T12:13:38;26.90;99.90
314;DHT22;143;51.634;7.112;2023-06-14T12:16:06;26.90;99.90
314;DHT22;143;51.634;7.112;2023-06-14T12:18:33;27.00;99.90
314;DHT22;143;51.634;7.112;2023-06-14T12:21:09;27.00;99.90
314;DHT22;143;51.634;7.112;2023-06-14T12:23:46;27.10;99.90
314;DHT22;143;51.634;7.112;2023-06-14T12:26:13;27.30;99.90
314;DHT22;143;51.634;7.112;2023-06-14T12:28:41;27.40;99.90
314;DHT22;143;51.634;7.112;2023-06-14T12:31:11;27.50;99.90
314;DHT22;143;51.634;7.112;2023-06-14T12:33:38;27.60;99.90
314;DHT22;143;51.634;7.112;2023-06-14T12:36:04;27.60;99.90
314;DHT22;143;51.634;7.112;2023-06-14T12:38:32;27.60;99.90
314;DHT22;143;51.634;7.112;2023-06-14T12:40:57;27.60;99.90
314;DHT22;143;51.634;7.112;2023-06-14T12:43:23;27.50;99.90
314;DHT22;143;51.634;7.112;2023-06-14T12:45:49;27.40;99.90
314;DHT22;143;51.634;7.112;2023-06-14T12:48:16;27.40;99.90
314;DHT22;143;51.634;7.112;2023-06-14T12:50:41;27.40;99.90
314;DHT22;143;51.634;7.112;2023-06-14T12:53:07;27.50;99.90
314;DHT22;143;51.634;7.112;2023-06-14T12:55:33;27.60;99.90
314;DHT22;143;51.634;7.112;2023-06-14T12:57:59;27.70;99.90
314;DHT22;143;51.634;7.112;2023-06-14T13:00:25;27.70;99.90
314;DHT22;143;51.634;7.112;2023-06-14T13:02:56;27.60;99.90
314;DHT22;143;51.634;7.112;2023-06-14T13:05:22;27.60;99.90
314;DHT22;143;51.634;7.112;2023-06-14T13:07:47;27.60;99.90
314;DHT22;143;51.634;7.112;2023-06-14T13:10:13;27.60;99.90
314;DHT22;143;51.634;7.112;2023-06-14T13:12:39;27.50;99.90
314;DHT22;143;51.634;7.112;2023-06-14T13:15:05;27.50;99.90
314;DHT22;143;51.634;7.112;2023-06-14T13:17:32;27.50;99.90
314;DHT22;143;51.634;7.112;2023-06-14T13:19:58;27.60;99.90
314;DHT22;143;51.634;7.112;2023-06-14T13:22:25;27.70;99.90
314;DHT22;143;51.634;7.112;2023-06-14T13:24:50;27.80;99.90
314;DHT22;143;51.634;7.112;2023-06-14T13:27:16;28.00;99.90
314;DHT22;143;51.634;7.112;2023-06-14T13:29:42;28.10;99.90
314;DHT22;143;51.634;7.112;2023-06-14T13:32:07;28.10;99.90
314;DHT22;143;51.634;7.112;2023-06-14T13:34:33;27.90;99.90
314;DHT22;143;51.634;7.112;2023-06-14T13:36:59;28.00;99.90
314;DHT22;143;51.634;7.112;2023-06-14T13:39:25;28.00;99.90
314;DHT22;143;51.634;7.112;2023-06-14T13:41:51;28.00;99.90
314;DHT22;143;51.634;7.112;2023-06-14T13:44:17;28.00;99.90
314;DHT22;143;51.634;7.112;2023-06-14T13:46:46;28.00;99.90
314;DHT22;143;51.634;7.112;2023-06-14T13:49:12;28.10;99.90
314;DHT22;143;51.634;7.112;2023-06-14T13:51:38;28.10;99.90
314;DHT22;143;51.634;7.112;2023-06-14T13:54:04;28.20;99.90
314;DHT22;143;51.634;7.112;2023-06-14T13:56:30;28.30;99.90
314;DHT22;143;51.634;7.112;2023-06-14T13:58:56;28.30;99.90
314;DHT22;143;51.634;7.112;2023-06-14T14:01:21;28.30;99.90
314;DHT22;143;51.634;7.112;2023-06-14T14:03:48;28.40;99.90
314;DHT22;143;51.634;7.112;2023-06-14T14:06:15;28.30;99.90
314;DHT22;143;51.634;7.112;2023-06-14T14:08:42;28.20;99.90
314;DHT22;143;51.634;7.112;2023-06-14T14:11:08;28.10;99.90
314;DHT22;143;51.634;7.112;2023-06-14T14:13:34;27.90;99.90
314;DHT22;143;51.634;7.112;2023-06-14T14:16:02;27.80;99.90
314;DHT22;143;51.634;7.112;2023-06-14T14:18:29;27.60;99.90
314;DHT22;143;51.634;7.112;2023-06-14T14:20:55;27.70;99.90
314;DHT22;143;51.634;7.112;2023-06-14T14:23:21;27.70;99.90
314;DHT22;143;51.634;7.112;2023-06-14T14:25:47;27.70;99.90
314;DHT22;143;51.634;7.112;2023-06-14T14:28:13;27.70;99.90
314;DHT22;143;51.634;7.112;2023-06-14T14:30:41;27.60;99.90
314;DHT22;143;51.634;7.112;2023-06-14T14:33:07;27.60;99.90
314;DHT22;143;51.634;7.112;2023-06-14T14:35:33;27.60;99.90
314;DHT22;143;51.634;7.112;2023-06-14T14:37:59;27.60;99.90
314;DHT22;143;51.634;7.112;2023-06-14T14:40:25;27.80;99.90
314;DHT22;143;51.634;7.112;2023-06-14T14:42:51;27.90;99.90
314;DHT22;143;51.634;7.112;2023-06-14T14:45:17;27.90;99.90
314;DHT22;143;51.634;7.112;2023-06-14T14:47:43;28.00;99.90
314;DHT22;143;51.634;7.112;2023-06-14T14:50:09;28.00;99.90
314;DHT22;143;51.634;7.112;2023-06-14T14:52:35;27.90;99.90
314;DHT22;143;51.634;7.112;2023-06-14T14:55:01;27.90;99.90
314;DHT22;143;51.634;7.112;2023-06-14T14:57:27;27.90;99.90
314;DHT22;143;51.634;7.112;2023-06-14T14:59:52;28.00;99.90
314;DHT22;143;51.634;7.112;2023-06-14T15:02:18;28.10;99.90
314;DHT22;143;51.634;7.112;2023-06-14T15:04:45;28.20;99.90
314;DHT22;143;51.634;7.112;2023-06-14T15:07:11;28.30;99.90
314;DHT22;143;51.634;7.112;2023-06-14T15:09:38;28.30;99.90
314;DHT22;143;51.634;7.112;2023-06-14T15:12:04;28.30;99.90
314;DHT22;143;51.634;7.112;2023-06-14T15:14:30;28.20;99.90
314;DHT22;143;51.634;7.112;2023-06-14T15:16:56;28.20;99.90
314;DHT22;143;51.634;7.112;2023-06-14T15:19:23;28.10;99.90
314;DHT22;143;51.634;7.112;2023-06-14T15:21:49;27.90;99.90
314;DHT22;143;51.634;7.112;2023-06-14T15:24:14;27.80;99.90
314;DHT22;143;51.634;7.112;2023-06-14T15:26:40;27.70;99.90
314;DHT22;143;51.634;7.112;2023-06-14T15:29:06;27.60;99.90
314;DHT22;143;51.634;7.112;2023-06-14T15:31:31;27.50;99.90
314;DHT22;143;51.634;7.112;2023-06-14T15:33:57;27.50;99.90
314;DHT22;143;51.634;7.112;2023-06-14T15:36:22;27.50;99.90
314;DHT22;143;51.634;7.112;2023-06-14T15:38:48;27.50;99.90
314;DHT22;143;51.634;7.112;2023-06-14T15:41:14;27.60;99.90
314;DHT22;143;51.634;7.112;2023-06-14T15:43:39;27.60;99.90
314;DHT22;143;51.634;7.112;2023-06-14T15:46:05;27.60;99.90
314;DHT22;143;51.634;7.112;2023-06-14T15:48:31;27.60;99.90
314;DHT22;143;51.634;7.112;2023-06-14T15:50:56;27.60;99.90
314;DHT22;143;51.634;7.112;2023-06-14T15:53:22;27.60;99.90
314;DHT22;143;51.634;7.112;2023-06-14T15:55:48;27.50;99.90
314;DHT22;143;51.634;7.112;2023-06-14T15:58:13;27.50;99.90
314;DHT22;143;51.634;7.112;2023-06-14T16:00:39;27.50;99.90
314;DHT22;143;51.634;7.112;2023-06-14T16:03:05;27.60;99.90
314;DHT22;143;51.634;7.112;2023-06-14T16:05:31;27.60;99.90
314;DHT22;143;51.634;7.112;2023-06-14T16:07:56;27.70;99.90
314;DHT22;143;51.634;7.112;2023-06-14T16:10:22;27.70;99.90
314;DHT22;143;51.634;7.112;2023-06-14T16:12:49;27.70;99.90
314;DHT22;143;51.634;7.112;2023-06-14T16:15:15;27.60;99.90
314;DHT22;143;51.634;7.112;2023-06-14T16:17:40;27.60;99.90
314;DHT22;143;51.634;7.112;2023-06-14T16:20:08;27.60;99.90
314;DHT22;143;51.634;7.112;2023-06-14T16:22:34;27.60;99.90
314;DHT22;143;51.634;7.112;2023-06-14T16:25:00;27.50;99.90
314;DHT22;143;51.634;7.112;2023-06-14T16:27:25;27.50;99.90
314;DHT22;143;51.634;7.112;2023-06-14T16:29:51;27.50;99.90
314;DHT22;143;51.634;7.112;2023-06-14T16:32:17;27.50;99.90
314;DHT22;143;51.634;7.112;2023-06-14T16:34:42;27.50;99.90
314;DHT22;143;51.634;7.112;2023-06-14T16:37:08;27.50;99.90
314;DHT22;143;51.634;7.112;2023-06-14T16:39:34;27.40;99.90
314;DHT22;143;51.634;7.112;2023-06-14T16:41:59;27.30;99.90
314;DHT22;143;51.634;7.112;2023-06-14T16:44:25;27.30;99.90
314;DHT22;143;51.634;7.112;2023-06-14T16:46:51;27.30;99.90
314;DHT22;143;51.634;7.112;2023-06-14T16:49:17;27.30;99.90
314;DHT22;143;51.634;7.112;2023-06-14T16:51:43;27.30;99.90